sensor_id;sensor_type;location;lat;lon;timestamp;pressure;altitude;pressure_sealevel;temperature;humidity
58223;BME280;44020;50.890;15.796;2022-12-11T00:01:58;96688.33;;;-0.28;87.72
58223;BME280;44020;50.890;15.796;2022-12-11T00:04:25;96687.85;;;-0.29;87.68
58223;BME280;44020;50.890;15.796;2022-12-11T00:06:53;96686.05;;;-0.28;87.89
58223;BME280;44020;50.890;15.796;2022-12-11T00:09:20;96692.04;;;-0.25;87.82
58223;BME280;44020;50.890;15.796;2022-12-11T00:11:47;96689.47;;;-0.22;87.81
58223;BME280;44020;50.890;15.796;2022-12-11T00:14:15;96690.62;;;-0.20;88.00
58223;BME280;44020;50.890;15.796;2022-12-11T00:16:42;96690.27;;;-0.20;87.77
58223;BME280;44020;50.890;15.796;2022-12-11T00:19:09;96694.44;;;-0.19;87.67
58223;BME280;44020;50.890;15.796;2022-12-11T00:21:36;96701.80;;;-0.20;87.43
58223;BME280;44020;50.890;15.796;2022-12-11T00:24:04;96707.33;;;-0.27;87.36
58223;BME280;44020;50.890;15.796;2022-12-11T00:26:32;96707.45;;;-0.26;87.43
58223;BME280;44020;50.890;15.796;2022-12-11T00:28:59;96706.21;;;-0.26;87.37
58223;BME280;44020;50.890;15.796;2022-12-11T00:31:26;96711.85;;;-0.27;87.12
58223;BME280;44020;50.890;15.796;2022-12-11T00:33:54;96717.70;;;-0.29;87.12
58223;BME280;44020;50.890;15.796;2022-12-11T00:36:23;96722.72;;;-0.32;87.37
58223;BME280;44020;50.890;15.796;2022-12-11T00:38:52;96723.35;;;-0.31;87.31
58223;BME280;44020;50.890;15.796;2022-12-11T00:41:20;96722.45;;;-0.30;87.43
58223;BME280;44020;50.890;15.796;2022-12-11T00:43:47;96722.21;;;-0.28;87.71
58223;BME280;44020;50.890;15.796;2022-12-11T00:46:15;96723.61;;;-0.28;87.60
58223;BME280;44020;50.890;15.796;2022-12-11T00:48:42;96725.39;;;-0.29;87.59
58223;BME280;44020;50.890;15.796;2022-12-11T00:51:09;96727.45;;;-0.28;87.47
58223;BME280;44020;50.890;15.796;2022-12-11T00:53:37;96728.08;;;-0.31;87.22
58223;BME280;44020;50.890;15.796;2022-12-11T00:56:18;96737.45;;;-0.34;87.07
58223;BME280;44020;50.890;15.796;2022-12-11T00:58:47;96735.77;;;-0.35;87.00
58223;BME280;44020;50.890;15.796;2022-12-11T01:01:20;96734.29;;;-0.37;86.89
58223;BME280;44020;50.890;15.796;2022-12-11T01:03:47;96733.94;;;-0.37;87.02
58223;BME280;44020;50.890;15.796;2022-12-11T01:06:20;96730.71;;;-0.35;87.18
58223;BME280;44020;50.890;15.796;2022-12-11T01:08:48;96731.40;;;-0.35;87.06
58223;BME280;44020;50.890;15.796;2022-12-11T01:11:36;96729.98;;;-0.35;87.31
58223;BME280;44020;50.890;15.796;2022-12-11T01:14:04;96727.80;;;-0.32;87.28
58223;BME280;44020;50.890;15.796;2022-12-11T01:16:31;96721.32;;;-0.32;87.26
58223;BME280;44020;50.890;15.796;2022-12-11T01:18:59;96720.14;;;-0.33;87.14
58223;BME280;44020;50.890;15.796;2022-12-11T01:21:26;96723.95;;;-0.36;86.87
58223;BME280;44020;50.890;15.796;2022-12-11T01:23:54;96727.02;;;-0.43;86.50
58223;BME280;44020;50.890;15.796;2022-12-11T01:26:21;96729.50;;;-0.48;86.82
58223;BME280;44020;50.890;15.796;2022-12-11T01:28:50;96730.83;;;-0.50;86.66
58223;BME280;44020;50.890;15.796;2022-12-11T01:31:18;96725.67;;;-0.52;86.63
58223;BME280;44020;50.890;15.796;2022-12-11T01:33:46;96730.96;;;-0.53;86.52
58223;BME280;44020;50.890;15.796;2022-12-11T01:36:19;96729.14;;;-0.51;86.70
58223;BME280;44020;50.890;15.796;2022-12-11T01:38:48;96728.31;;;-0.53;86.69
58223;BME280;44020;50.890;15.796;2022-12-11T01:41:16;96722.02;;;-0.52;86.79
58223;BME280;44020;50.890;15.796;2022-12-11T01:46:32;96735.98;;;-0.52;86.66
58223;BME280;44020;50.890;15.796;2022-12-11T01:49:02;96737.73;;;-0.57;86.86
58223;BME280;44020;50.890;15.796;2022-12-11T01:51:32;96733.76;;;-0.57;86.58
58223;BME280;44020;50.890;15.796;2022-12-11T01:54:07;96732.94;;;-0.59;86.72
58223;BME280;44020;50.890;15.796;2022-12-11T01:56:36;96739.02;;;-0.59;86.64
58223;BME280;44020;50.890;15.796;2022-12-11T01:59:07;96735.75;;;-0.59;86.46
58223;BME280;44020;50.890;15.796;2022-12-11T02:01:57;96731.73;;;-0.64;86.22
58223;BME280;44020;50.890;15.796;2022-12-11T02:04:26;96727.85;;;-0.67;86.26
58223;BME280;44020;50.890;15.796;2022-12-11T02:06:55;96731.65;;;-0.70;86.26
58223;BME280;44020;50.890;15.796;2022-12-11T02:09:27;96732.98;;;-0.73;86.38
58223;BME280;44020;50.890;15.796;2022-12-11T02:14:42;96737.42;;;-0.71;86.81
58223;BME280;44020;50.890;15.796;2022-12-11T02:17:20;96733.05;;;-0.66;86.89
58223;BME280;44020;50.890;15.796;2022-12-11T02:31:37;96726.41;;;-0.74;86.52
58223;BME280;44020;50.890;15.796;2022-12-11T02:34:15;96725.13;;;-0.73;86.44
58223;BME280;44020;50.890;15.796;2022-12-11T02:36:48;96722.21;;;-0.74;86.32
58223;BME280;44020;50.890;15.796;2022-12-11T02:39:17;96717.66;;;-0.78;86.02
58223;BME280;44020;50.890;15.796;2022-12-11T02:41:50;96717.04;;;-0.79;86.37
58223;BME280;44020;50.890;15.796;2022-12-11T02:44:26;96720.05;;;-0.76;86.44
58223;BME280;44020;50.890;15.796;2022-12-11T02:46:57;96721.94;;;-0.76;86.28
58223;BME280;44020;50.890;15.796;2022-12-11T02:49:27;96724.98;;;-0.78;86.31
58223;BME280;44020;50.890;15.796;2022-12-11T02:51:55;96725.53;;;-0.74;86.61
58223;BME280;44020;50.890;15.796;2022-12-11T02:54:26;96728.80;;;-0.69;86.64
58223;BME280;44020;50.890;15.796;2022-12-11T02:57:10;96723.29;;;-0.67;86.66
58223;BME280;44020;50.890;15.796;2022-12-11T02:59:40;96724.46;;;-0.65;86.46
58223;BME280;44020;50.890;15.796;2022-12-11T03:02:10;96717.00;;;-0.66;86.39
58223;BME280;44020;50.890;15.796;2022-12-11T03:04:40;96715.15;;;-0.68;86.26
58223;BME280;44020;50.890;15.796;2022-12-11T03:07:12;96712.20;;;-0.72;86.05
58223;BME280;44020;50.890;15.796;2022-12-11T03:09:43;96712.16;;;-0.76;85.77
58223;BME280;44020;50.890;15.796;2022-12-11T03:12:18;96713.09;;;-0.81;85.95
58223;BME280;44020;50.890;15.796;2022-12-11T03:14:46;96707.37;;;-0.82;86.05
58223;BME280;44020;50.890;15.796;2022-12-11T03:17:18;96704.82;;;-0.84;86.12
58223;BME280;44020;50.890;15.796;2022-12-11T03:20:02;96697.26;;;-0.82;86.18
58223;BME280;44020;50.890;15.796;2022-12-11T03:25:26;96705.20;;;-0.80;86.29
58223;BME280;44020;50.890;15.796;2022-12-11T03:28:05;96707.03;;;-0.78;86.37
58223;BME280;44020;50.890;15.796;2022-12-11T03:30:37;96712.36;;;-0.80;86.13
58223;BME280;44020;50.890;15.796;2022-12-11T03:33:13;96712.98;;;-0.87;86.11
58223;BME280;44020;50.890;15.796;2022-12-11T03:35:50;96713.08;;;-0.90;86.32
58223;BME280;44020;50.890;15.796;2022-12-11T03:38:26;96715.08;;;-0.91;86.19
58223;BME280;44020;50.890;15.796;2022-12-11T03:40:56;96714.67;;;-0.94;86.22
58223;BME280;44020;50.890;15.796;2022-12-11T03:43:25;96717.16;;;-0.96;86.18
58223;BME280;44020;50.890;15.796;2022-12-11T03:45:55;96719.74;;;-0.95;86.26
58223;BME280;44020;50.890;15.796;2022-12-11T03:48:27;96716.43;;;-0.94;86.33
58223;BME280;44020;50.890;15.796;2022-12-11T03:50:57;96711.85;;;-0.93;86.42
58223;BME280;44020;50.890;15.796;2022-12-11T03:53:25;96714.70;;;-0.91;86.57
58223;BME280;44020;50.890;15.796;2022-12-11T03:55:55;96712.14;;;-0.88;86.65
58223;BME280;44020;50.890;15.796;2022-12-11T03:58:24;96712.09;;;-0.87;86.57
58223;BME280;44020;50.890;15.796;2022-12-11T04:00:51;96712.98;;;-0.87;86.52
58223;BME280;44020;50.890;15.796;2022-12-11T04:03:18;96713.85;;;-0.87;86.57
58223;BME280;44020;50.890;15.796;2022-12-11T04:05:48;96711.04;;;-0.86;86.69
58223;BME280;44020;50.890;15.796;2022-12-11T04:08:17;96713.27;;;-0.85;86.76
58223;BME280;44020;50.890;15.796;2022-12-11T04:10:47;96714.00;;;-0.86;86.54
58223;BME280;44020;50.890;15.796;2022-12-11T04:13:14;96718.73;;;-0.87;86.57
58223;BME280;44020;50.890;15.796;2022-12-11T04:15:42;96718.10;;;-0.89;86.20
58223;BME280;44020;50.890;15.796;2022-12-11T04:18:09;96717.06;;;-0.93;86.15
58223;BME280;44020;50.890;15.796;2022-12-11T04:20:55;96711.67;;;-0.93;86.41
58223;BME280;44020;50.890;15.796;2022-12-11T04:23:40;96708.16;;;-0.92;86.42
58223;BME280;44020;50.890;15.796;2022-12-11T04:26:26;96704.39;;;-0.94;86.06
58223;BME280;44020;50.890;15.796;2022-12-11T04:28:53;96704.45;;;-1.00;86.12
58223;BME280;44020;50.890;15.796;2022-12-11T04:31:21;96702.19;;;-1.05;86.14
58223;BME280;44020;50.890;15.796;2022-12-11T04:33:49;96706.54;;;-1.09;85.89
58223;BME280;44020;50.890;15.796;2022-12-11T04:36:16;96701.46;;;-1.13;85.83
58223;BME280;44020;50.890;15.796;2022-12-11T04:38:43;96703.01;;;-1.16;85.70
58223;BME280;44020;50.890;15.796;2022-12-11T04:41:12;96697.59;;;-1.16;85.76
58223;BME280;44020;50.890;15.796;2022-12-11T04:43:40;96698.27;;;-1.15;85.80
58223;BME280;44020;50.890;15.796;2022-12-11T04:46:17;96693.34;;;-1.14;85.85
58223;BME280;44020;50.890;15.796;2022-12-11T04:48:45;96691.86;;;-1.12;85.76
58223;BME280;44020;50.890;15.796;2022-12-11T04:51:13;96686.48;;;-1.13;85.68
58223;BME280;44020;50.890;15.796;2022-12-11T04:53:41;96685.36;;;-1.15;85.66
58223;BME280;44020;50.890;15.796;2022-12-11T04:56:11;96693.85;;;-1.23;85.51
58223;BME280;44020;50.890;15.796;2022-12-11T04:58:40;96694.13;;;-1.30;85.40
58223;BME280;44020;50.890;15.796;2022-12-11T05:01:17;96693.27;;;-1.30;85.62
58223;BME280;44020;50.890;15.796;2022-12-11T05:03:45;96691.69;;;-1.29;85.24
58223;BME280;44020;50.890;15.796;2022-12-11T05:06:13;96685.65;;;-1.31;85.04
58223;BME280;44020;50.890;15.796;2022-12-11T05:08:41;96679.84;;;-1.34;85.07
58223;BME280;44020;50.890;15.796;2022-12-11T05:11:12;96680.48;;;-1.37;85.26
58223;BME280;44020;50.890;15.796;2022-12-11T05:13:40;96686.06;;;-1.33;85.63
58223;BME280;44020;50.890;15.796;2022-12-11T05:16:09;96687.73;;;-1.31;85.70
58223;BME280;44020;50.890;15.796;2022-12-11T05:18:37;96683.27;;;-1.32;85.74
58223;BME280;44020;50.890;15.796;2022-12-11T05:21:11;96680.96;;;-1.36;85.74
58223;BME280;44020;50.890;15.796;2022-12-11T05:23:40;96684.66;;;-1.41;85.77
58223;BME280;44020;50.890;15.796;2022-12-11T05:26:12;96684.30;;;-1.45;85.47
58223;BME280;44020;50.890;15.796;2022-12-11T05:28:40;96682.44;;;-1.56;85.61
58223;BME280;44020;50.890;15.796;2022-12-11T05:31:12;96681.45;;;-1.58;85.82
58223;BME280;44020;50.890;15.796;2022-12-11T05:33:40;96679.30;;;-1.56;85.83
58223;BME280;44020;50.890;15.796;2022-12-11T05:36:08;96672.58;;;-1.54;85.91
58223;BME280;44020;50.890;15.796;2022-12-11T05:38:39;96674.31;;;-1.53;85.92
58223;BME280;44020;50.890;15.796;2022-12-11T05:41:07;96679.49;;;-1.52;86.00
58223;BME280;44020;50.890;15.796;2022-12-11T05:43:35;96680.27;;;-1.50;86.22
58223;BME280;44020;50.890;15.796;2022-12-11T05:46:09;96681.54;;;-1.46;86.20
58223;BME280;44020;50.890;15.796;2022-12-11T05:48:38;96680.79;;;-1.45;86.06
58223;BME280;44020;50.890;15.796;2022-12-11T05:51:07;96679.14;;;-1.48;85.96
58223;BME280;44020;50.890;15.796;2022-12-11T05:53:35;96678.98;;;-1.53;85.69
58223;BME280;44020;50.890;15.796;2022-12-11T05:56:05;96684.02;;;-1.57;85.55
58223;BME280;44020;50.890;15.796;2022-12-11T05:58:33;96684.29;;;-1.59;85.27
58223;BME280;44020;50.890;15.796;2022-12-11T06:01:01;96682.27;;;-1.65;85.40
58223;BME280;44020;50.890;15.796;2022-12-11T06:03:28;96683.23;;;-1.63;85.69
58223;BME280;44020;50.890;15.796;2022-12-11T06:05:55;96689.88;;;-1.64;85.48
58223;BME280;44020;50.890;15.796;2022-12-11T06:08:23;96694.91;;;-1.68;85.61
58223;BME280;44020;50.890;15.796;2022-12-11T06:10:50;96697.21;;;-1.69;85.83
58223;BME280;44020;50.890;15.796;2022-12-11T06:13:17;96701.71;;;-1.69;85.80
58223;BME280;44020;50.890;15.796;2022-12-11T06:15:44;96696.31;;;-1.69;85.70
58223;BME280;44020;50.890;15.796;2022-12-11T06:18:11;96694.38;;;-1.68;85.83
58223;BME280;44020;50.890;15.796;2022-12-11T06:20:39;96694.55;;;-1.68;85.70
58223;BME280;44020;50.890;15.796;2022-12-11T06:23:06;96701.20;;;-1.69;85.85
58223;BME280;44020;50.890;15.796;2022-12-11T06:25:34;96706.98;;;-1.69;85.55
58223;BME280;44020;50.890;15.796;2022-12-11T06:28:01;96711.02;;;-1.75;85.47
58223;BME280;44020;50.890;15.796;2022-12-11T06:30:29;96713.81;;;-1.80;85.76
58223;BME280;44020;50.890;15.796;2022-12-11T06:32:57;96712.94;;;-1.85;85.84
58223;BME280;44020;50.890;15.796;2022-12-11T06:35:25;96715.69;;;-1.89;85.98
58223;BME280;44020;50.890;15.796;2022-12-11T06:37:53;96716.38;;;-1.93;86.31
58223;BME280;44020;50.890;15.796;2022-12-11T06:40:20;96718.23;;;-1.96;86.24
58223;BME280;44020;50.890;15.796;2022-12-11T06:42:48;96719.88;;;-1.98;86.27
58223;BME280;44020;50.890;15.796;2022-12-11T06:45:15;96716.79;;;-2.00;86.31
58223;BME280;44020;50.890;15.796;2022-12-11T06:47:42;96720.53;;;-1.97;86.43
58223;BME280;44020;50.890;15.796;2022-12-11T06:50:10;96720.18;;;-1.93;86.60
58223;BME280;44020;50.890;15.796;2022-12-11T06:52:37;96719.71;;;-1.89;86.29
58223;BME280;44020;50.890;15.796;2022-12-11T06:55:05;96714.90;;;-1.95;86.08
58223;BME280;44020;50.890;15.796;2022-12-11T06:57:33;96722.56;;;-1.95;86.17
58223;BME280;44020;50.890;15.796;2022-12-11T07:00:00;96722.94;;;-1.96;86.13
58223;BME280;44020;50.890;15.796;2022-12-11T07:02:27;96719.27;;;-1.96;86.12
58223;BME280;44020;50.890;15.796;2022-12-11T07:04:54;96722.27;;;-1.97;86.11
58223;BME280;44020;50.890;15.796;2022-12-11T07:07:22;96724.54;;;-1.97;85.75
58223;BME280;44020;50.890;15.796;2022-12-11T07:09:49;96723.20;;;-1.98;86.16
58223;BME280;44020;50.890;15.796;2022-12-11T07:12:16;96729.16;;;-2.00;86.07
58223;BME280;44020;50.890;15.796;2022-12-11T07:14:44;96729.70;;;-2.01;85.91
58223;BME280;44020;50.890;15.796;2022-12-11T07:17:11;96730.23;;;-2.01;85.74
58223;BME280;44020;50.890;15.796;2022-12-11T07:19:39;96733.52;;;-2.00;85.96
58223;BME280;44020;50.890;15.796;2022-12-11T07:22:06;96735.62;;;-1.96;86.19
58223;BME280;44020;50.890;15.796;2022-12-11T07:24:34;96732.98;;;-1.90;86.14
58223;BME280;44020;50.890;15.796;2022-12-11T07:27:01;96736.02;;;-1.87;85.64
58223;BME280;44020;50.890;15.796;2022-12-11T07:29:28;96736.51;;;-1.92;85.48
58223;BME280;44020;50.890;15.796;2022-12-11T07:31:56;96737.21;;;-1.92;85.21
58223;BME280;44020;50.890;15.796;2022-12-11T07:34:23;96736.17;;;-1.97;85.14
58223;BME280;44020;50.890;15.796;2022-12-11T07:36:50;96736.98;;;-1.99;84.98
58223;BME280;44020;50.890;15.796;2022-12-11T07:39:17;96734.12;;;-2.02;85.12
58223;BME280;44020;50.890;15.796;2022-12-11T07:41:44;96740.60;;;-2.08;84.91
58223;BME280;44020;50.890;15.796;2022-12-11T07:44:13;96749.53;;;-2.10;85.30
58223;BME280;44020;50.890;15.796;2022-12-11T07:46:40;96753.31;;;-2.13;85.26
58223;BME280;44020;50.890;15.796;2022-12-11T07:49:07;96750.02;;;-2.19;85.46
58223;BME280;44020;50.890;15.796;2022-12-11T07:51:36;96747.48;;;-2.20;85.53
58223;BME280;44020;50.890;15.796;2022-12-11T07:54:07;96735.15;;;-2.21;85.70
58223;BME280;44020;50.890;15.796;2022-12-11T07:56:34;96734.39;;;-2.20;85.68
58223;BME280;44020;50.890;15.796;2022-12-11T07:59:03;96739.13;;;-2.16;85.76
58223;BME280;44020;50.890;15.796;2022-12-11T08:01:34;96739.92;;;-2.14;85.68
58223;BME280;44020;50.890;15.796;2022-12-11T08:04:03;96742.21;;;-2.15;85.65
58223;BME280;44020;50.890;15.796;2022-12-11T08:06:34;96745.34;;;-2.14;85.26
58223;BME280;44020;50.890;15.796;2022-12-11T08:09:05;96744.91;;;-2.17;85.23
58223;BME280;44020;50.890;15.796;2022-12-11T08:11:34;96748.64;;;-2.19;85.30
58223;BME280;44020;50.890;15.796;2022-12-11T08:14:01;96746.70;;;-2.18;85.37
58223;BME280;44020;50.890;15.796;2022-12-11T08:16:29;96743.38;;;-2.18;85.61
58223;BME280;44020;50.890;15.796;2022-12-11T08:18:56;96742.75;;;-2.15;85.22
58223;BME280;44020;50.890;15.796;2022-12-11T08:21:26;96742.83;;;-2.22;85.33
58223;BME280;44020;50.890;15.796;2022-12-11T08:23:54;96742.94;;;-2.25;85.43
58223;BME280;44020;50.890;15.796;2022-12-11T08:26:27;96744.09;;;-2.28;85.56
58223;BME280;44020;50.890;15.796;2022-12-11T08:28:55;96748.54;;;-2.26;85.30
58223;BME280;44020;50.890;15.796;2022-12-11T08:31:23;96750.77;;;-2.35;84.82
58223;BME280;44020;50.890;15.796;2022-12-11T08:33:51;96752.72;;;-2.41;84.96
58223;BME280;44020;50.890;15.796;2022-12-11T08:36:20;96749.83;;;-2.43;85.15
58223;BME280;44020;50.890;15.796;2022-12-11T08:38:49;96749.08;;;-2.42;85.11
58223;BME280;44020;50.890;15.796;2022-12-11T08:41:23;96745.95;;;-2.37;85.30
58223;BME280;44020;50.890;15.796;2022-12-11T08:43:52;96744.82;;;-2.34;85.18
58223;BME280;44020;50.890;15.796;2022-12-11T08:46:23;96738.34;;;-2.34;84.92
58223;BME280;44020;50.890;15.796;2022-12-11T08:48:53;96740.48;;;-2.35;84.44
58223;BME280;44020;50.890;15.796;2022-12-11T08:51:23;96739.55;;;-2.38;84.24
58223;BME280;44020;50.890;15.796;2022-12-11T08:53:59;96740.33;;;-2.40;83.77
58223;BME280;44020;50.890;15.796;2022-12-11T08:56:27;96742.30;;;-2.46;83.85
58223;BME280;44020;50.890;15.796;2022-12-11T08:58:58;96740.34;;;-2.51;83.62
58223;BME280;44020;50.890;15.796;2022-12-11T09:01:26;96741.48;;;-2.59;83.66
58223;BME280;44020;50.890;15.796;2022-12-11T09:03:55;96744.56;;;-2.62;83.97
58223;BME280;44020;50.890;15.796;2022-12-11T09:06:25;96739.77;;;-2.64;83.89
58223;BME280;44020;50.890;15.796;2022-12-11T09:08:53;96741.05;;;-2.67;83.82
58223;BME280;44020;50.890;15.796;2022-12-11T09:11:25;96743.02;;;-2.68;83.52
58223;BME280;44020;50.890;15.796;2022-12-11T09:13:53;96743.94;;;-2.70;83.40
58223;BME280;44020;50.890;15.796;2022-12-11T09:16:22;96737.92;;;-2.72;83.40
58223;BME280;44020;50.890;15.796;2022-12-11T09:18:52;96738.69;;;-2.69;83.88
58223;BME280;44020;50.890;15.796;2022-12-11T09:21:22;96735.92;;;-2.64;83.65
58223;BME280;44020;50.890;15.796;2022-12-11T09:23:54;96735.93;;;-2.64;83.54
58223;BME280;44020;50.890;15.796;2022-12-11T09:26:23;96733.31;;;-2.64;83.42
58223;BME280;44020;50.890;15.796;2022-12-11T09:28:51;96735.86;;;-2.62;83.56
58223;BME280;44020;50.890;15.796;2022-12-11T09:31:25;96735.14;;;-2.57;83.42
58223;BME280;44020;50.890;15.796;2022-12-11T09:33:56;96731.67;;;-2.51;83.27
58223;BME280;44020;50.890;15.796;2022-12-11T09:36:24;96728.93;;;-2.48;82.94
58223;BME280;44020;50.890;15.796;2022-12-11T09:38:51;96731.84;;;-2.46;82.48
58223;BME280;44020;50.890;15.796;2022-12-11T09:46:40;96723.27;;;-2.64;82.19
58223;BME280;44020;50.890;15.796;2022-12-11T09:49:29;96721.55;;;-2.65;82.54
58223;BME280;44020;50.890;15.796;2022-12-11T09:54:57;96718.80;;;-2.67;82.63
58223;BME280;44020;50.890;15.796;2022-12-11T10:05:28;96718.02;;;-2.54;83.03
58223;BME280;44020;50.890;15.796;2022-12-11T10:10:42;96712.38;;;-2.46;82.71
58223;BME280;44020;50.890;15.796;2022-12-11T10:13:53;96710.44;;;-2.46;82.18
58223;BME280;44020;50.890;15.796;2022-12-11T10:16:34;96706.46;;;-2.52;82.27
58223;BME280;44020;50.890;15.796;2022-12-11T10:19:04;96705.12;;;-2.54;82.44
58223;BME280;44020;50.890;15.796;2022-12-11T10:21:38;96700.96;;;-2.54;82.64
58223;BME280;44020;50.890;15.796;2022-12-11T10:24:15;96701.13;;;-2.54;82.56
58223;BME280;44020;50.890;15.796;2022-12-11T10:26:46;96697.54;;;-2.55;82.28
58223;BME280;44020;50.890;15.796;2022-12-11T10:29:14;96695.90;;;-2.58;81.68
58223;BME280;44020;50.890;15.796;2022-12-11T10:31:57;96691.16;;;-2.62;81.23
58223;BME280;44020;50.890;15.796;2022-12-11T10:36:57;96686.99;;;-2.67;81.12
58223;BME280;44020;50.890;15.796;2022-12-11T10:39:25;96682.73;;;-2.69;81.37
58223;BME280;44020;50.890;15.796;2022-12-11T10:41:54;96680.80;;;-2.69;81.58
58223;BME280;44020;50.890;15.796;2022-12-11T10:44:24;96681.23;;;-2.67;81.93
58223;BME280;44020;50.890;15.796;2022-12-11T10:47:13;96679.41;;;-2.59;82.07
58223;BME280;44020;50.890;15.796;2022-12-11T10:49:56;96675.87;;;-2.57;81.97
58223;BME280;44020;50.890;15.796;2022-12-11T10:52:36;96673.30;;;-2.58;81.86
58223;BME280;44020;50.890;15.796;2022-12-11T10:55:28;96671.05;;;-2.54;81.69
58223;BME280;44020;50.890;15.796;2022-12-11T10:58:03;96667.08;;;-2.55;81.27
58223;BME280;44020;50.890;15.796;2022-12-11T11:00:39;96662.27;;;-2.56;81.17
58223;BME280;44020;50.890;15.796;2022-12-11T11:03:23;96657.97;;;-2.53;81.69
58223;BME280;44020;50.890;15.796;2022-12-11T11:06:16;96654.20;;;-2.54;81.49
58223;BME280;44020;50.890;15.796;2022-12-11T11:08:55;96655.40;;;-2.54;81.88
58223;BME280;44020;50.890;15.796;2022-12-11T11:11:24;96649.88;;;-2.50;82.04
58223;BME280;44020;50.890;15.796;2022-12-11T11:14:15;96647.79;;;-2.50;81.67
58223;BME280;44020;50.890;15.796;2022-12-11T11:16:45;96643.69;;;-2.52;81.61
58223;BME280;44020;50.890;15.796;2022-12-11T11:19:34;96638.14;;;-2.47;81.59
58223;BME280;44020;50.890;15.796;2022-12-11T11:22:14;96633.05;;;-2.46;80.61
58223;BME280;44020;50.890;15.796;2022-12-11T11:24:46;96634.02;;;-2.54;80.46
58223;BME280;44020;50.890;15.796;2022-12-11T11:27:34;96635.58;;;-2.58;80.58
58223;BME280;44020;50.890;15.796;2022-12-11T11:30:09;96636.13;;;-2.64;80.86
58223;BME280;44020;50.890;15.796;2022-12-11T11:32:44;96636.02;;;-2.66;81.14
58223;BME280;44020;50.890;15.796;2022-12-11T11:37:43;96633.86;;;-2.59;81.39
58223;BME280;44020;50.890;15.796;2022-12-11T11:40:21;96632.98;;;-2.54;81.33
58223;BME280;44020;50.890;15.796;2022-12-11T11:45:52;96633.86;;;-2.49;80.71
58223;BME280;44020;50.890;15.796;2022-12-11T11:48:34;96634.71;;;-2.54;80.50
58223;BME280;44020;50.890;15.796;2022-12-11T11:51:15;96631.92;;;-2.53;80.61
58223;BME280;44020;50.890;15.796;2022-12-11T11:53:48;96634.05;;;-2.50;80.57
58223;BME280;44020;50.890;15.796;2022-12-11T11:56:18;96632.67;;;-2.50;80.72
58223;BME280;44020;50.890;15.796;2022-12-11T12:01:40;96628.48;;;-2.49;80.98
58223;BME280;44020;50.890;15.796;2022-12-11T12:04:10;96622.50;;;-2.52;80.82
58223;BME280;44020;50.890;15.796;2022-12-11T12:12:10;96621.30;;;-2.43;80.90
58223;BME280;44020;50.890;15.796;2022-12-11T12:20:42;96613.91;;;-2.50;79.53
58223;BME280;44020;50.890;15.796;2022-12-11T12:25:59;96620.42;;;-2.58;79.76
58223;BME280;44020;50.890;15.796;2022-12-11T12:28:46;96616.16;;;-2.60;80.14
58223;BME280;44020;50.890;15.796;2022-12-11T12:34:01;96609.91;;;-2.51;80.82
58223;BME280;44020;50.890;15.796;2022-12-11T12:44:59;96603.77;;;-2.54;79.93
58223;BME280;44020;50.890;15.796;2022-12-11T12:47:31;96605.58;;;-2.56;79.31
58223;BME280;44020;50.890;15.796;2022-12-11T12:50:01;96606.46;;;-2.61;79.21
58223;BME280;44020;50.890;15.796;2022-12-11T12:52:38;96608.14;;;-2.64;79.28
58223;BME280;44020;50.890;15.796;2022-12-11T12:57:53;96609.92;;;-2.65;80.01
58223;BME280;44020;50.890;15.796;2022-12-11T13:00:40;96614.89;;;-2.63;80.00
58223;BME280;44020;50.890;15.796;2022-12-11T13:03:26;96613.14;;;-2.68;79.51
58223;BME280;44020;50.890;15.796;2022-12-11T13:06:08;96610.55;;;-2.68;79.64
58223;BME280;44020;50.890;15.796;2022-12-11T13:11:10;96614.42;;;-2.75;79.12
58223;BME280;44020;50.890;15.796;2022-12-11T13:13:41;96615.37;;;-2.77;79.02
58223;BME280;44020;50.890;15.796;2022-12-11T13:16:36;96613.77;;;-2.81;78.90
58223;BME280;44020;50.890;15.796;2022-12-11T13:24:32;96621.51;;;-2.89;79.38
58223;BME280;44020;50.890;15.796;2022-12-11T13:27:21;96628.20;;;-2.91;79.14
58223;BME280;44020;50.890;15.796;2022-12-11T13:29:49;96622.85;;;-3.02;78.64
58223;BME280;44020;50.890;15.796;2022-12-11T13:34:51;96623.13;;;-3.10;78.66
58223;BME280;44020;50.890;15.796;2022-12-11T13:37:32;96619.22;;;-3.13;78.57
58223;BME280;44020;50.890;15.796;2022-12-11T13:40:04;96620.37;;;-3.17;78.56
58223;BME280;44020;50.890;15.796;2022-12-11T13:42:39;96616.65;;;-3.20;79.04
58223;BME280;44020;50.890;15.796;2022-12-11T13:45:25;96618.70;;;-3.18;79.38
58223;BME280;44020;50.890;15.796;2022-12-11T13:47:55;96620.19;;;-3.17;79.80
58223;BME280;44020;50.890;15.796;2022-12-11T13:50:27;96619.47;;;-3.16;79.63
58223;BME280;44020;50.890;15.796;2022-12-11T13:52:58;96625.10;;;-3.13;79.38
58223;BME280;44020;50.890;15.796;2022-12-11T13:55:32;96619.29;;;-3.16;79.40
58223;BME280;44020;50.890;15.796;2022-12-11T13:58:00;96620.73;;;-3.12;79.37
58223;BME280;44020;50.890;15.796;2022-12-11T14:00:29;96619.11;;;-3.10;78.92
58223;BME280;44020;50.890;15.796;2022-12-11T14:03:01;96616.86;;;-3.10;79.23
58223;BME280;44020;50.890;15.796;2022-12-11T14:05:31;96616.77;;;-3.08;79.19
58223;BME280;44020;50.890;15.796;2022-12-11T14:08:05;96619.33;;;-3.07;79.02
58223;BME280;44020;50.890;15.796;2022-12-11T14:10:37;96620.95;;;-3.08;78.76
58223;BME280;44020;50.890;15.796;2022-12-11T14:13:09;96620.63;;;-3.09;79.18
58223;BME280;44020;50.890;15.796;2022-12-11T14:15:43;96624.23;;;-3.07;79.50
58223;BME280;44020;50.890;15.796;2022-12-11T14:18:22;96621.32;;;-3.09;79.86
58223;BME280;44020;50.890;15.796;2022-12-11T14:21:03;96626.05;;;-3.10;79.98
58223;BME280;44020;50.890;15.796;2022-12-11T14:23:35;96628.34;;;-3.10;79.82
58223;BME280;44020;50.890;15.796;2022-12-11T14:26:17;96629.91;;;-3.11;79.42
58223;BME280;44020;50.890;15.796;2022-12-11T14:28:44;96635.16;;;-3.12;79.43
58223;BME280;44020;50.890;15.796;2022-12-11T14:31:15;96631.88;;;-3.12;79.30
58223;BME280;44020;50.890;15.796;2022-12-11T14:33:49;96629.33;;;-3.14;79.37
58223;BME280;44020;50.890;15.796;2022-12-11T14:36:18;96629.61;;;-3.13;79.52
58223;BME280;44020;50.890;15.796;2022-12-11T14:38:55;96631.98;;;-3.10;79.26
58223;BME280;44020;50.890;15.796;2022-12-11T14:41:43;96628.89;;;-3.11;79.51